createdAt,value
2022-08-26T00:02:24.833Z,66.86
2022-08-26T00:05:05.192Z,66.64
2022-08-26T00:08:25.101Z,66.90
2022-08-26T00:11:05.560Z,66.96
2022-08-26T00:14:08.183Z,66.93
2022-08-26T00:17:48.043Z,67.00
2022-08-26T00:21:00.324Z,66.93
2022-08-26T00:27:33.411Z,67.17
2022-08-26T00:30:08.427Z,67.46
2022-08-26T00:32:39.809Z,67.41
2022-08-26T00:35:16.210Z,67.40
2022-08-26T00:37:54.167Z,67.26
2022-08-26T00:40:41.467Z,67.38
2022-08-26T00:43:12.356Z,67.06
2022-08-26T00:46:05.119Z,67.11
2022-08-26T00:52:04.555Z,67.30
2022-08-26T00:54:40.159Z,67.06
2022-08-26T00:57:16.339Z,67.51
2022-08-26T01:07:34.768Z,67.33
2022-08-26T01:10:10.756Z,67.29
2022-08-26T01:13:03.817Z,67.77
2022-08-26T01:15:38.667Z,67.66
2022-08-26T01:18:08.784Z,67.42
2022-08-26T01:21:02.304Z,67.20
2022-08-26T01:23:35.353Z,67.58
2022-08-26T01:26:19.717Z,67.49
2022-08-26T01:29:03.379Z,67.62
2022-08-26T01:32:02.054Z,67.97
2022-08-26T01:34:46.181Z,68.06
2022-08-26T01:37:21.364Z,67.97
2022-08-26T01:40:04.224Z,68.18
2022-08-26T01:42:35.648Z,68.29
2022-08-26T01:45:12.540Z,68.73
2022-08-26T01:48:05.251Z,69.04
2022-08-26T01:50:38.358Z,69.32
2022-08-26T01:53:11.599Z,69.21
2022-08-26T01:56:02.648Z,69.33
2022-08-26T01:59:03.892Z,69.59
2022-08-26T02:01:35.861Z,69.92
2022-08-26T02:04:14.653Z,69.79
2022-08-26T02:07:02.803Z,70.44
2022-08-26T02:09:41.090Z,71.02
2022-08-26T02:12:13.308Z,70.99
2022-08-26T02:15:06.544Z,71.24
2022-08-26T02:17:39.972Z,71.54
2022-08-26T02:20:13.123Z,72.09
2022-08-26T02:26:00.967Z,72.40
2022-08-26T02:28:38.815Z,72.63
2022-08-26T02:31:08.028Z,73.32
2022-08-26T02:33:37.906Z,73.40
2022-08-26T02:36:12.163Z,73.08
2022-08-26T02:38:49.365Z,73.33
2022-08-26T02:41:44.793Z,73.80
2022-08-26T02:44:37.103Z,73.82
2022-08-26T02:47:30.283Z,74.00
2022-08-26T02:50:37.697Z,74.48
2022-08-26T02:53:36.253Z,74.77
2022-08-26T02:56:33.101Z,75.24
2022-08-26T02:59:29.163Z,75.11
2022-08-26T03:02:06.408Z,75.49
2022-08-26T03:04:35.278Z,75.99
2022-08-26T03:10:14.752Z,76.52
2022-08-26T03:12:44.004Z,76.65
2022-08-26T03:15:35.673Z,76.85
2022-08-26T03:18:17.490Z,77.40
2022-08-26T03:21:00.705Z,77.33
2022-08-26T03:23:34.681Z,77.64
2022-08-26T03:26:08.081Z,77.75
2022-08-26T03:29:01.666Z,78.04
2022-08-26T03:31:36.036Z,77.80
2022-08-26T03:34:07.222Z,77.79
2022-08-26T03:36:37.511Z,77.85
2022-08-26T03:39:06.210Z,78.10
2022-08-26T03:41:38.692Z,77.89
2022-08-26T03:44:16.886Z,78.01
2022-08-26T03:46:48.358Z,78.39
2022-08-26T03:49:29.016Z,78.13
2022-08-26T03:52:08.085Z,78.12
2022-08-26T03:54:36.559Z,78.41
2022-08-26T03:57:04.893Z,78.38
2022-08-26T03:59:36.154Z,78.35
2022-08-26T04:02:11.802Z,78.48
2022-08-26T04:04:40.648Z,78.59
2022-08-26T04:07:12.163Z,78.61
2022-08-26T04:09:40.400Z,78.89
2022-08-26T04:12:11.496Z,78.85
2022-08-26T04:14:39.865Z,78.64
2022-08-26T04:17:08.221Z,79.17
2022-08-26T04:19:36.722Z,79.25
2022-08-26T04:22:10.363Z,79.05
2022-08-26T04:24:40.335Z,79.22
2022-08-26T04:30:07.342Z,79.85
2022-08-26T04:32:37.400Z,79.40
2022-08-26T04:35:12.052Z,79.85
2022-08-26T04:37:42.997Z,79.85
2022-08-26T04:40:18.339Z,80.14
2022-08-26T04:42:46.704Z,80.34
2022-08-26T04:45:28.878Z,80.19
2022-08-26T04:48:02.782Z,80.51
2022-08-26T04:50:37.549Z,80.38
2022-08-26T04:53:08.993Z,80.70
2022-08-26T04:55:39.820Z,80.96
2022-08-26T04:58:11.360Z,80.87
2022-08-26T05:00:39.688Z,80.75
2022-08-26T05:03:10.555Z,81.06
2022-08-26T05:05:43.449Z,80.97
2022-08-26T05:08:13.551Z,81.05
2022-08-26T05:10:47.368Z,81.48
2022-08-26T05:13:24.977Z,81.62
2022-08-26T05:15:53.461Z,81.52
2022-08-26T05:18:28.498Z,81.73
2022-08-26T05:21:05.966Z,81.57
2022-08-26T05:23:37.129Z,81.63
2022-08-26T05:26:11.634Z,81.97
2022-08-26T05:28:39.921Z,81.61
2022-08-26T05:31:24.360Z,81.84
2022-08-26T05:33:52.906Z,81.92
2022-08-26T05:36:23.871Z,81.90
2022-08-26T05:38:58.709Z,81.96
2022-08-26T05:41:39.520Z,82.17
2022-08-26T05:44:11.247Z,81.93
2022-08-26T05:46:41.182Z,82.31
2022-08-26T05:49:12.719Z,82.13
2022-08-26T05:51:43.908Z,82.17
2022-08-26T05:54:22.348Z,82.06
2022-08-26T05:56:52.628Z,82.06
2022-08-26T05:59:28.253Z,82.07
2022-08-26T06:01:56.573Z,82.20
2022-08-26T06:04:29.213Z,82.15
2022-08-26T06:06:58.805Z,82.79
2022-08-26T06:09:27.776Z,82.58
2022-08-26T06:12:02.220Z,82.66
2022-08-26T06:14:33.377Z,82.88
2022-08-26T06:17:01.690Z,82.84
2022-08-26T06:19:32.882Z,82.86
2022-08-26T06:22:23.790Z,82.83
2022-08-26T06:25:10.488Z,82.85
2022-08-26T06:27:38.800Z,82.86
2022-08-26T06:30:07.631Z,82.93
2022-08-26T06:32:36.036Z,82.91
2022-08-26T06:35:04.391Z,83.21
2022-08-26T06:37:37.895Z,83.27
2022-08-26T06:40:07.900Z,83.19
2022-08-26T06:42:38.755Z,83.50
2022-08-26T06:45:07.603Z,82.71
2022-08-26T06:47:36.479Z,83.26
2022-08-26T06:50:07.975Z,83.19
2022-08-26T06:52:38.623Z,83.37
2022-08-26T06:55:07.303Z,83.14
2022-08-26T06:57:39.810Z,83.44
2022-08-26T07:00:11.490Z,83.23
2022-08-26T07:02:40.880Z,83.15
2022-08-26T07:05:18.758Z,82.87
2022-08-26T07:07:49.202Z,83.04
2022-08-26T07:10:17.484Z,83.16
2022-08-26T07:12:48.546Z,83.34
2022-08-26T07:15:17.393Z,83.54
2022-08-26T07:17:45.807Z,83.28
2022-08-26T07:20:17.351Z,83.63
2022-08-26T07:22:47.588Z,83.29
2022-08-26T07:25:19.327Z,83.82
2022-08-26T07:27:54.381Z,84.10
2022-08-26T07:30:23.078Z,83.91
2022-08-26T07:32:51.389Z,84.05
2022-08-26T07:35:19.704Z,84.02
2022-08-26T07:37:47.934Z,83.75
2022-08-26T07:40:22.681Z,83.88
2022-08-26T07:42:51.983Z,83.76
2022-08-26T07:45:21.004Z,83.89
2022-08-26T07:47:49.403Z,84.07
2022-08-26T07:50:18.080Z,83.98
2022-08-26T07:52:46.389Z,84.28
2022-08-26T07:55:14.888Z,84.07
2022-08-26T07:57:43.673Z,84.30
2022-08-26T08:00:19.456Z,83.80
2022-08-26T08:02:47.887Z,83.95
2022-08-26T08:05:23.245Z,84.08
2022-08-26T08:08:27.031Z,84.45
2022-08-26T08:10:56.694Z,84.51
2022-08-26T08:13:27.963Z,84.64
2022-08-26T08:15:58.867Z,84.22
2022-08-26T08:18:33.019Z,84.52
2022-08-26T08:21:23.691Z,84.69
2022-08-26T08:23:56.477Z,84.51
2022-08-26T08:26:31.006Z,84.46
2022-08-26T08:29:02.066Z,84.80
2022-08-26T08:31:55.963Z,84.60
2022-08-26T08:34:22.048Z,84.94
2022-08-26T08:36:53.297Z,84.49
2022-08-26T08:39:22.575Z,85.04
2022-08-26T08:42:23.520Z,84.62
2022-08-26T08:44:56.702Z,84.93
2022-08-26T08:47:39.927Z,84.87
2022-08-26T08:50:21.641Z,85.09
2022-08-26T08:53:05.771Z,85.05
2022-08-26T08:56:26.604Z,85.16
2022-08-26T08:59:17.215Z,85.50
2022-08-26T09:01:45.940Z,85.67
2022-08-26T09:04:44.839Z,85.33
2022-08-26T09:07:40.969Z,85.26
2022-08-26T09:10:26.761Z,86.03
2022-08-26T09:12:55.241Z,85.90
2022-08-26T09:15:35.233Z,85.76
2022-08-26T09:18:35.706Z,85.43
2022-08-26T09:21:07.274Z,85.49
2022-08-26T09:23:41.686Z,85.61
2022-08-26T09:26:30.752Z,85.76
2022-08-26T09:29:06.466Z,85.72
2022-08-26T09:31:37.742Z,85.79
2022-08-26T09:34:20.667Z,85.71
2022-08-26T09:36:57.172Z,85.58
2022-08-26T09:39:30.046Z,85.96
2022-08-26T09:42:11.740Z,85.98
2022-08-26T09:44:57.524Z,85.60
2022-08-26T09:47:32.842Z,85.81
2022-08-26T09:50:29.884Z,85.85
2022-08-26T09:53:37.093Z,85.46
2022-08-26T09:56:18.955Z,85.79
2022-08-26T09:58:49.276Z,86.13
2022-08-26T10:01:36.115Z,86.11
2022-08-26T10:04:26.937Z,86.06
2022-08-26T10:07:04.814Z,85.75
2022-08-26T10:09:41.446Z,86.07
2022-08-26T10:12:18.285Z,86.09
2022-08-26T10:14:53.031Z,86.06
2022-08-26T10:17:46.985Z,85.77
2022-08-26T10:20:28.257Z,86.21
2022-08-26T10:23:23.230Z,85.89
2022-08-26T10:26:14.265Z,85.74
2022-08-26T10:28:42.699Z,85.85
2022-08-26T10:31:51.401Z,86.08
2022-08-26T10:34:21.261Z,86.26
2022-08-26T10:37:14.702Z,85.81
2022-08-26T10:39:58.580Z,85.64
2022-08-26T10:42:44.281Z,85.81
2022-08-26T10:45:29.514Z,85.76
2022-08-26T10:48:00.842Z,85.85
2022-08-26T10:50:37.292Z,85.34
2022-08-26T10:53:09.943Z,85.96
2022-08-26T10:56:04.895Z,85.48
2022-08-26T10:58:39.805Z,85.72
2022-08-26T11:01:43.761Z,85.63
2022-08-26T11:04:45.613Z,85.48
2022-08-26T11:07:41.678Z,85.85
2022-08-26T11:10:44.460Z,85.59
2022-08-26T11:13:13.028Z,86.06
2022-08-26T11:15:41.705Z,86.20
2022-08-26T11:18:12.116Z,86.37
2022-08-26T11:20:51.090Z,86.05
2022-08-26T11:23:27.601Z,86.03
2022-08-26T11:26:11.240Z,85.69
2022-08-26T11:28:54.645Z,85.74
2022-08-26T11:31:58.169Z,85.26
2022-08-26T11:34:57.623Z,85.23
2022-08-26T11:37:37.114Z,85.15
2022-08-26T11:40:23.641Z,85.13
2022-08-26T11:43:01.622Z,84.67
2022-08-26T11:45:36.042Z,84.74
2022-08-26T11:48:22.431Z,84.72
2022-08-26T11:50:56.449Z,84.76
2022-08-26T11:53:29.922Z,84.79
2022-08-26T11:56:00.750Z,84.97
2022-08-26T11:58:30.139Z,84.76
2022-08-26T12:01:03.591Z,84.87
2022-08-26T12:03:51.229Z,85.02
2022-08-26T12:06:43.452Z,84.84
2022-08-26T12:09:22.419Z,85.17
2022-08-26T12:12:12.191Z,84.65
2022-08-26T12:14:40.805Z,84.75
2022-08-26T12:17:14.821Z,84.83
2022-08-26T12:19:44.454Z,84.98
2022-08-26T12:22:29.277Z,84.92
2022-08-26T12:25:01.118Z,84.92
2022-08-26T12:27:41.544Z,84.70
2022-08-26T12:30:13.875Z,84.71
2022-08-26T12:32:59.046Z,85.14
2022-08-26T12:35:29.684Z,85.00
2022-08-26T12:41:51.772Z,84.32
2022-08-26T12:44:42.455Z,83.92
2022-08-26T12:47:58.564Z,83.34
2022-08-26T12:50:38.833Z,83.19
2022-08-26T12:53:18.551Z,82.61
2022-08-26T12:55:52.850Z,82.18
2022-08-26T12:58:23.386Z,82.04
2022-08-26T13:01:11.483Z,81.34
2022-08-26T13:03:45.527Z,81.26
2022-08-26T13:06:18.459Z,81.46
2022-08-26T13:08:53.895Z,81.69
2022-08-26T13:11:36.207Z,81.84
2022-08-26T13:14:07.199Z,81.84
2022-08-26T13:16:36.009Z,81.40
2022-08-26T13:19:10.341Z,81.72
2022-08-26T13:21:53.330Z,81.67
2022-08-26T13:24:32.749Z,81.59
2022-08-26T13:27:06.089Z,81.76
2022-08-26T13:29:34.413Z,81.53
2022-08-26T13:32:04.353Z,81.66
2022-08-26T13:34:36.225Z,81.73
2022-08-26T13:37:05.497Z,81.60
2022-08-26T13:39:34.013Z,81.52
2022-08-26T13:42:02.434Z,81.45
2022-08-26T13:44:39.355Z,80.82
2022-08-26T13:47:08.145Z,80.81
2022-08-26T13:49:36.441Z,80.56
2022-08-26T13:52:05.039Z,80.48
2022-08-26T13:54:34.096Z,80.73
2022-08-26T13:57:02.481Z,80.50
2022-08-26T13:59:30.771Z,80.73
2022-08-26T14:01:59.648Z,80.68
2022-08-26T14:04:30.811Z,80.71
2022-08-26T14:06:59.097Z,81.40
2022-08-26T14:09:27.570Z,81.88
2022-08-26T14:11:56.280Z,82.29
2022-08-26T14:14:25.922Z,82.72
2022-08-26T14:16:59.651Z,83.68
2022-08-26T14:19:35.795Z,83.77
2022-08-26T14:22:05.246Z,83.85
2022-08-26T14:24:33.769Z,84.36
2022-08-26T14:27:04.752Z,84.99
2022-08-26T14:29:34.879Z,85.11
2022-08-26T14:32:12.436Z,85.10
2022-08-26T14:34:42.810Z,85.45
2022-08-26T14:37:15.167Z,85.57
2022-08-26T14:39:43.756Z,86.23
2022-08-26T14:42:18.356Z,86.31
2022-08-26T14:44:49.620Z,86.29
2022-08-26T14:47:17.553Z,87.71
2022-08-26T14:49:45.781Z,86.99
2022-08-26T14:52:14.203Z,87.94
2022-08-26T14:54:42.418Z,88.23
2022-08-26T14:57:14.346Z,88.93
2022-08-26T14:59:49.738Z,88.50
2022-08-26T15:02:32.394Z,88.81
2022-08-26T15:05:03.272Z,89.69
2022-08-26T15:07:31.833Z,90.34
2022-08-26T15:10:00.017Z,90.63
2022-08-26T15:12:28.659Z,90.58
2022-08-26T15:14:56.993Z,90.61
2022-08-26T15:17:25.741Z,90.24
2022-08-26T15:19:54.022Z,90.58
2022-08-26T15:22:22.516Z,90.61
2022-08-26T15:24:53.616Z,90.43
2022-08-26T15:27:25.424Z,90.96
2022-08-26T15:29:53.686Z,90.72
2022-08-26T15:32:22.006Z,90.60
2022-08-26T15:34:51.600Z,90.21
2022-08-26T15:37:19.947Z,90.18
2022-08-26T15:39:49.613Z,90.73
2022-08-26T15:42:18.670Z,90.67
2022-08-26T15:44:47.384Z,91.31
2022-08-26T15:47:15.725Z,91.64
2022-08-26T15:49:44.019Z,92.61
2022-08-26T15:52:12.485Z,92.31
2022-08-26T15:54:41.072Z,92.14
2022-08-26T15:57:12.948Z,92.46
2022-08-26T15:59:42.812Z,92.65
2022-08-26T16:02:11.737Z,93.44
2022-08-26T16:04:39.992Z,93.45
2022-08-26T16:07:08.528Z,93.06
2022-08-26T16:09:39.942Z,93.05
2022-08-26T16:14:47.366Z,92.59
2022-08-26T16:17:39.488Z,92.69
2022-08-26T16:22:57.372Z,92.55
2022-08-26T16:25:38.913Z,92.70
2022-08-26T16:28:11.593Z,92.74
2022-08-26T16:30:41.224Z,92.09
2022-08-26T16:33:13.093Z,91.84
2022-08-26T16:38:26.098Z,92.32
2022-08-26T16:40:54.593Z,93.23
2022-08-26T16:43:23.074Z,93.07
2022-08-26T16:45:51.322Z,92.88
2022-08-26T16:48:21.039Z,93.25
2022-08-26T16:50:50.218Z,92.93
2022-08-26T16:53:19.633Z,92.83
2022-08-26T16:55:49.342Z,92.37
2022-08-26T16:58:18.133Z,91.59
2022-08-26T17:04:10.698Z,90.16
2022-08-26T17:07:12.269Z,90.59
2022-08-26T17:09:41.447Z,90.94
2022-08-26T17:12:09.849Z,90.71
2022-08-26T17:14:40.075Z,89.93
2022-08-26T17:17:11.023Z,89.66
2022-08-26T17:19:47.242Z,89.04
2022-08-26T17:22:16.704Z,88.40
2022-08-26T17:24:53.477Z,87.58
2022-08-26T17:27:24.730Z,87.01
2022-08-26T17:29:52.725Z,86.57
2022-08-26T17:32:20.942Z,86.04
2022-08-26T17:34:49.331Z,84.86
2022-08-26T17:37:18.319Z,84.18
2022-08-26T17:39:51.274Z,84.77
2022-08-26T17:42:20.198Z,84.53
2022-08-26T17:44:49.504Z,84.53
2022-08-26T17:47:17.906Z,84.70
2022-08-26T17:49:46.672Z,83.83
2022-08-26T17:52:15.175Z,82.61
2022-08-26T17:54:45.731Z,82.76
2022-08-26T17:57:13.988Z,82.17
2022-08-26T17:59:43.223Z,82.04
2022-08-26T18:02:11.837Z,81.50
2022-08-26T18:04:40.205Z,81.01
2022-08-26T18:07:08.655Z,80.55
2022-08-26T18:09:37.487Z,80.98
2022-08-26T18:12:10.176Z,79.85
2022-08-26T18:14:38.655Z,78.25
2022-08-26T18:17:06.923Z,77.19
2022-08-26T18:19:35.298Z,76.60
2022-08-26T18:22:03.647Z,75.13
2022-08-26T18:24:33.092Z,75.13
2022-08-26T18:27:01.519Z,74.76
2022-08-26T18:29:30.009Z,74.08
2022-08-26T18:31:58.255Z,73.61
2022-08-26T18:34:31.874Z,73.03
2022-08-26T18:37:00.396Z,73.20
2022-08-26T18:39:28.791Z,71.77
2022-08-26T18:42:06.082Z,72.42
2022-08-26T18:44:39.033Z,71.53
2022-08-26T18:47:10.509Z,71.16
2022-08-26T18:49:41.600Z,70.99
2022-08-26T18:52:09.896Z,70.88
2022-08-26T18:54:38.304Z,70.41
2022-08-26T18:57:09.605Z,70.25
2022-08-26T18:59:37.947Z,69.84
2022-08-26T19:02:06.859Z,69.46
2022-08-26T19:04:35.415Z,69.48
2022-08-26T19:07:11.088Z,68.97
2022-08-26T19:09:39.444Z,69.03
2022-08-26T19:12:08.124Z,68.19
2022-08-26T19:14:37.517Z,68.47
2022-08-26T19:17:06.481Z,68.46
2022-08-26T19:19:35.063Z,67.47
2022-08-26T19:22:03.423Z,67.78
2022-08-26T19:24:34.675Z,67.31
2022-08-26T19:27:04.434Z,66.98
2022-08-26T19:29:38.952Z,66.13
2022-08-26T19:32:08.001Z,65.79
2022-08-26T19:34:37.251Z,64.96
2022-08-26T19:37:05.642Z,65.29
2022-08-26T19:39:33.963Z,64.63
2022-08-26T19:42:02.346Z,65.25
2022-08-26T19:44:48.941Z,64.33
2022-08-26T19:47:17.322Z,64.24
2022-08-26T19:49:46.592Z,63.38
2022-08-26T19:52:15.331Z,63.31
2022-08-26T19:54:43.697Z,63.33
2022-08-26T19:57:12.070Z,63.48
2022-08-26T19:59:41.409Z,63.15
2022-08-26T20:02:13.454Z,63.37
2022-08-26T20:04:42.664Z,63.03
2022-08-26T20:07:13.054Z,62.89
2022-08-26T20:09:45.254Z,62.64
2022-08-26T20:12:15.191Z,62.29
2022-08-26T20:14:43.844Z,62.99
2022-08-26T20:17:12.665Z,62.25
2022-08-26T20:20:02.224Z,62.64
2022-08-26T20:22:36.239Z,62.60
2022-08-26T20:25:04.873Z,63.29
2022-08-26T20:27:38.233Z,63.49
2022-08-26T20:30:14.658Z,63.15
2022-08-26T20:32:43.756Z,62.50
2022-08-26T20:35:14.119Z,62.47
2022-08-26T20:37:45.812Z,62.45
2022-08-26T20:40:15.642Z,62.36
2022-08-26T20:42:44.502Z,62.53
2022-08-26T20:45:13.026Z,63.02
2022-08-26T20:47:44.573Z,61.48
2022-08-26T20:50:12.963Z,62.39
2022-08-26T20:52:41.211Z,62.20
2022-08-26T20:55:10.198Z,62.21
2022-08-26T20:57:38.573Z,62.13
2022-08-26T21:00:08.342Z,62.71
2022-08-26T21:02:39.773Z,62.75
2022-08-26T21:05:11.235Z,62.45
2022-08-26T21:07:42.336Z,61.69
2022-08-26T21:10:11.355Z,61.90
2022-08-26T21:12:39.632Z,61.87
2022-08-26T21:15:08.578Z,60.83
2022-08-26T21:17:40.028Z,60.68
2022-08-26T21:20:11.178Z,60.75
2022-08-26T21:22:39.439Z,61.08
2022-08-26T21:25:42.332Z,60.40
2022-08-26T21:28:37.058Z,60.35
2022-08-26T21:31:23.046Z,59.93
2022-08-26T21:33:52.283Z,59.65
2022-08-26T21:37:15.300Z,59.35
2022-08-26T21:39:45.819Z,59.24
2022-08-26T21:45:07.999Z,59.25
2022-08-26T21:51:45.841Z,58.85
2022-08-26T21:55:03.109Z,59.07
2022-08-26T22:07:50.248Z,59.17
2022-08-26T22:41:52.936Z,57.59
2022-08-26T23:00:54.616Z,57.50
2022-08-26T23:20:25.914Z,57.62
2022-08-26T23:34:21.081Z,57.81
2022-08-26T23:53:18.580Z,58.89
2022-08-26T23:56:49.927Z,57.81
